Time;durP1;ratioP1;P1;durP2;ratioP2;P2;SDS_P1;SDS_P2;PMS_P1;PMS_P2;Temp;Humidity;BMP_temperature;BMP_pressure;BME280_temperature;BME280_humidity;BME280_pressure;Samples;Min_cycle;Max_cycle;Signal;HPM_P1;HPM_P2
2022/06/16 00:00:19;;;;;;;7.15;2.45;;;13.70;99.90;;;;;;5038811;28;20044;-76
2022/06/16 00:02:48;;;;;;;7.78;2.17;;;13.70;99.90;;;;;;5025958;28;20880;-76
2022/06/16 00:05:22;;;;;;;7.55;1.90;;;13.70;99.90;;;;;;5020900;28;20163;-75
2022/06/16 00:07:48;;;;;;;7.43;1.77;;;13.70;99.90;;;;;;5022885;28;20048;-76
2022/06/16 00:10:14;;;;;;;5.47;1.98;;;13.60;99.90;;;;;;5029085;28;20402;-76
2022/06/16 00:12:40;;;;;;;5.10;1.90;;;13.60;99.90;;;;;;5059858;28;20092;-76
2022/06/16 00:15:09;;;;;;;6.40;2.08;;;13.50;99.90;;;;;;5052636;28;20135;-76
2022/06/16 00:17:35;;;;;;;5.70;1.80;;;13.50;99.90;;;;;;5038289;28;20053;-76
2022/06/16 00:20:01;;;;;;;6.75;2.42;;;13.50;99.90;;;;;;5025148;28;20034;-76
2022/06/16 00:22:27;;;;;;;5.68;2.17;;;13.40;99.90;;;;;;5058537;28;20120;-76
2022/06/16 00:24:54;;;;;;;6.85;2.10;;;13.40;99.90;;;;;;5036700;28;20082;-76
2022/06/16 00:27:19;;;;;;;5.13;2.13;;;13.40;99.90;;;;;;5062680;28;20056;-76
2022/06/16 00:29:48;;;;;;;4.78;1.83;;;13.40;99.90;;;;;;5053489;28;20033;-76
2022/06/16 00:32:13;;;;;;;4.72;1.90;;;13.30;99.90;;;;;;5060975;28;20052;-76
2022/06/16 00:34:39;;;;;;;4.35;2.08;;;13.30;99.90;;;;;;5022677;28;20060;-76
2022/06/16 00:37:05;;;;;;;3.22;1.80;;;13.30;99.90;;;;;;5060783;28;20052;-76
2022/06/16 00:39:30;;;;;;;8.55;2.28;;;13.30;99.90;;;;;;5060467;28;20076;-76
2022/06/16 00:42:12;;;;;;;7.07;2.47;;;13.20;99.90;;;;;;5026008;28;20076;-76
2022/06/16 00:44:44;;;;;;;6.93;2.75;;;13.20;99.90;;;;;;5041204;28;20124;-76
2022/06/16 00:47:10;;;;;;;6.25;2.38;;;13.10;99.90;;;;;;5029551;28;20553;-76
2022/06/16 00:49:40;;;;;;;7.00;3.00;;;13.10;99.90;;;;;;5062397;28;20056;-76
2022/06/16 00:52:12;;;;;;;5.28;2.13;;;13.10;99.90;;;;;;5061608;28;20044;-76
2022/06/16 00:54:47;;;;;;;6.88;2.42;;;13.00;99.90;;;;;;5038795;28;20048;-76
2022/06/16 00:57:18;;;;;;;5.68;2.05;;;13.00;99.90;;;;;;5025115;28;20053;-76
2022/06/16 00:59:44;;;;;;;9.35;2.25;;;13.00;99.90;;;;;;5037957;28;20488;-76
2022/06/16 01:02:10;;;;;;;5.45;2.40;;;12.90;99.90;;;;;;5040653;28;20045;-76
2022/06/16 01:04:52;;;;;;;4.30;2.15;;;12.90;99.90;;;;;;5061601;28;20852;-76
2022/06/16 01:07:23;;;;;;;6.00;2.60;;;12.80;99.90;;;;;;5021409;28;20045;-76
2022/06/16 01:09:49;;;;;;;4.63;2.30;;;12.90;99.90;;;;;;5029139;28;20043;-76
2022/06/16 01:15:46;;;;;;;7.15;2.90;;;12.80;99.90;;;;;;5037080;28;20126;-76
2022/06/16 01:18:39;;;;;;;10.75;2.50;;;12.80;99.90;;;;;;5054239;28;20110;-76
2022/06/16 01:21:30;;;;;;;7.88;2.60;;;12.80;99.90;;;;;;5058536;28;20167;-76
2022/06/16 01:24:26;;;;;;;5.32;2.30;;;12.70;99.90;;;;;;5057558;28;20080;-76
2022/06/16 01:27:06;;;;;;;7.47;2.38;;;12.70;99.90;;;;;;5050523;28;20056;-76
2022/06/16 01:30:03;;;;;;;6.13;2.50;;;12.70;99.90;;;;;;5047429;28;20112;-76
2022/06/16 01:32:58;;;;;;;7.72;2.50;;;12.60;99.90;;;;;;5039345;28;20545;-76
2022/06/16 01:35:54;;;;;;;5.75;2.35;;;12.60;99.90;;;;;;5029019;28;20044;-76
2022/06/16 01:38:30;;;;;;;7.63;2.53;;;12.70;99.90;;;;;;5061223;28;20051;-76
2022/06/16 01:41:11;;;;;;;4.30;2.03;;;12.70;99.90;;;;;;5050347;28;20053;-76
2022/06/16 01:43:43;;;;;;;6.85;2.67;;;12.70;99.90;;;;;;5043455;28;20486;-76
2022/06/16 01:46:22;;;;;;;6.35;2.25;;;12.70;99.90;;;;;;5031573;28;20053;-76
2022/06/16 01:48:54;;;;;;;6.88;2.50;;;12.70;99.90;;;;;;5021242;28;20057;-76
2022/06/16 01:51:39;;;;;;;7.88;2.50;;;12.80;99.90;;;;;;5032843;28;20049;-76
2022/06/16 01:54:15;;;;;;;6.85;2.50;;;12.80;99.90;;;;;;5024834;28;20761;-76
2022/06/16 01:57:02;;;;;;;5.50;2.33;;;12.80;99.90;;;;;;5054358;28;20810;-75
2022/06/16 01:59:48;;;;;;;7.22;3.08;;;12.80;99.90;;;;;;5053632;28;20151;-76
2022/06/16 02:02:17;;;;;;;6.90;2.47;;;12.90;99.90;;;;;;5055748;28;20040;-76
2022/06/16 02:05:00;;;;;;;7.65;2.50;;;12.80;99.90;;;;;;5033544;28;20052;-76
2022/06/16 02:07:39;;;;;;;5.07;2.63;;;12.80;99.90;;;;;;5060404;28;20059;-76
2022/06/16 02:10:16;;;;;;;6.82;2.50;;;12.80;99.90;;;;;;5030306;28;20056;-76
2022/06/16 02:12:58;;;;;;;7.72;2.58;;;12.90;99.90;;;;;;5053010;28;20041;-76
2022/06/16 02:15:47;;;;;;;5.63;2.38;;;12.90;99.90;;;;;;5035682;28;20045;-76
2022/06/16 02:18:18;;;;;;;7.43;2.35;;;12.90;99.90;;;;;;5037430;28;20060;-76
2022/06/16 02:21:06;;;;;;;8.68;3.13;;;12.90;99.90;;;;;;5051453;28;20058;-76
2022/06/16 02:23:33;;;;;;;7.45;2.60;;;12.90;99.90;;;;;;5058081;28;20056;-76
2022/06/16 02:25:59;;;;;;;6.75;3.00;;;12.90;99.90;;;;;;5059158;28;20131;-76
2022/06/16 02:28:26;;;;;;;8.38;3.03;;;12.90;99.90;;;;;;5033387;28;20033;-76
2022/06/16 02:31:36;;;;;;;7.28;2.83;;;12.90;99.90;;;;;;5025634;28;20513;-76
2022/06/16 02:34:11;;;;;;;7.60;2.97;;;13.00;99.90;;;;;;5024839;28;20048;-76
2022/06/16 02:37:06;;;;;;;9.10;3.30;;;13.00;99.90;;;;;;5037587;28;20060;-76
2022/06/16 02:39:51;;;;;;;6.90;3.08;;;13.00;99.90;;;;;;5031131;28;20143;-76
2022/06/16 02:42:40;;;;;;;8.20;2.83;;;13.00;99.90;;;;;;5040728;28;20099;-76
2022/06/16 02:45:33;;;;;;;7.95;2.70;;;12.90;99.90;;;;;;5022491;28;20134;-76
2022/06/16 02:48:18;;;;;;;8.00;3.10;;;12.90;99.90;;;;;;5053665;28;20602;-76
2022/06/16 02:51:02;;;;;;;8.00;3.05;;;12.80;99.90;;;;;;5040082;28;20052;-76
2022/06/16 02:56:31;;;;;;;5.57;2.90;;;12.70;99.90;;;;;;5043464;28;20160;-76
2022/06/16 02:59:05;;;;;;;6.72;2.78;;;12.70;99.90;;;;;;5041514;28;20139;-76
2022/06/16 03:01:31;;;;;;;;;;;12.70;99.90;;;;;;5056864;28;20052;-76
2022/06/16 03:04:13;;;;;;;8.32;2.67;;;12.60;99.90;;;;;;5057635;28;20690;-77
2022/06/16 03:06:39;;;;;;;6.20;2.53;;;12.60;99.90;;;;;;5021118;28;20037;-77
2022/06/16 03:09:05;;;;;;;11.02;3.00;;;12.60;99.90;;;;;;5018173;28;20879;-77
2022/06/16 03:11:32;;;;;;;8.02;3.05;;;12.50;99.90;;;;;;5022243;28;20045;-76
2022/06/16 03:13:58;;;;;;;5.65;2.75;;;12.50;99.90;;;;;;5029971;28;20503;-76
2022/06/16 03:16:24;;;;;;;9.23;2.50;;;12.50;99.90;;;;;;5018804;28;20049;-76
2022/06/16 03:18:50;;;;;;;7.88;2.83;;;12.50;99.90;;;;;;5037384;28;20083;-76
2022/06/16 03:21:16;;;;;;;6.20;2.75;;;12.40;99.90;;;;;;5037427;28;20091;-77
2022/06/16 03:23:42;;;;;;;9.00;3.00;;;12.40;99.90;;;;;;5037439;28;20049;-76
2022/06/16 03:26:08;;;;;;;6.63;2.47;;;12.40;99.90;;;;;;5037013;28;20132;-76
2022/06/16 03:28:34;;;;;;;7.60;2.97;;;12.30;99.90;;;;;;5035339;28;21841;-76
2022/06/16 03:30:59;;;;;;;7.75;2.60;;;12.30;99.90;;;;;;5037120;28;20114;-76
2022/06/16 03:33:25;;;;;;;5.00;2.63;;;12.30;99.90;;;;;;5037783;28;20044;-76
2022/06/16 03:35:51;;;;;;;5.93;2.60;;;12.30;99.90;;;;;;5047805;28;20049;-76
2022/06/16 03:41:14;;;;;;;8.85;2.90;;;12.30;99.90;;;;;;5041752;28;20052;-77
2022/06/16 03:43:40;;;;;;;7.53;3.30;;;12.30;99.90;;;;;;5042032;28;20129;-76
2022/06/16 03:46:07;;;;;;;5.40;2.80;;;12.30;99.90;;;;;;5039598;28;20048;-76
2022/06/16 03:48:34;;;;;;;8.13;3.05;;;12.40;99.90;;;;;;5044017;28;20895;-76
2022/06/16 03:51:00;;;;;;;7.45;3.85;;;12.40;99.90;;;;;;5043152;28;20073;-76
2022/06/16 03:53:25;;;;;;;6.65;2.60;;;12.50;99.90;;;;;;5045849;28;20048;-76
2022/06/16 03:55:51;;;;;;;5.60;2.80;;;12.60;99.90;;;;;;5042580;28;20052;-76
2022/06/16 03:58:17;;;;;;;5.88;2.63;;;12.60;99.90;;;;;;5037193;28;20049;-76
2022/06/16 04:00:43;;;;;;;8.50;3.25;;;12.60;99.90;;;;;;5044695;28;20143;-76
2022/06/16 04:05:54;;;;;;;6.68;2.72;;;12.70;99.90;;;;;;5035944;28;20122;-76
2022/06/16 04:08:20;;;;;;;6.57;2.85;;;12.70;99.90;;;;;;5028971;28;20045;-78
2022/06/16 04:10:47;;;;;;;8.20;3.05;;;12.70;99.90;;;;;;5047776;28;20037;-76
2022/06/16 04:13:14;;;;;;;7.00;2.80;;;12.70;99.90;;;;;;5028938;28;20060;-76
2022/06/16 04:15:40;;;;;;;6.22;2.90;;;12.70;99.90;;;;;;5041407;28;20049;-76
2022/06/16 04:18:07;;;;;;;9.80;3.40;;;12.70;99.90;;;;;;5034901;28;20079;-76
2022/06/16 04:20:33;;;;;;;9.60;2.88;;;12.70;99.90;;;;;;5032047;28;20775;-77
2022/06/16 04:22:59;;;;;;;5.30;3.00;;;12.70;99.90;;;;;;5037966;28;20054;-76
2022/06/16 04:25:30;;;;;;;8.30;3.25;;;12.80;99.90;;;;;;5043108;28;20041;-78
2022/06/16 04:27:59;;;;;;;12.52;3.55;;;12.80;99.90;;;;;;5041138;28;20782;-78
2022/06/16 04:30:25;;;;;;;9.35;2.78;;;12.90;99.90;;;;;;5038017;28;20045;-78
2022/06/16 04:32:51;;;;;;;6.47;3.60;;;13.00;99.90;;;;;;5038707;28;20048;-78
2022/06/16 04:35:17;;;;;;;7.57;3.60;;;13.00;99.90;;;;;;5035049;28;20142;-78
2022/06/16 04:37:42;;;;;;;6.93;3.58;;;13.10;99.90;;;;;;5040469;28;20048;-78
2022/06/16 04:40:10;;;;;;;7.65;3.45;;;13.20;99.90;;;;;;5045365;28;20431;-78
2022/06/16 04:42:36;;;;;;;7.53;4.32;;;13.30;99.90;;;;;;5037360;28;20054;-76
2022/06/16 04:45:02;;;;;;;7.60;3.80;;;13.40;99.90;;;;;;5035394;28;21551;-76
2022/06/16 04:47:28;;;;;;;8.10;3.63;;;13.50;99.90;;;;;;5031121;28;20045;-76
2022/06/16 04:49:53;;;;;;;9.25;4.00;;;13.70;99.90;;;;;;5037365;28;20061;-76
2022/06/16 04:52:19;;;;;;;7.97;3.85;;;13.90;99.90;;;;;;5040196;28;20102;-76
2022/06/16 04:54:45;;;;;;;9.57;4.32;;;13.80;99.90;;;;;;5041726;28;20048;-75
2022/06/16 04:57:11;;;;;;;8.05;3.47;;;13.90;99.90;;;;;;5020512;28;20048;-76
2022/06/16 04:59:37;;;;;;;8.23;4.40;;;14.00;99.90;;;;;;5036276;28;20502;-76
2022/06/16 05:02:03;;;;;;;9.80;3.90;;;14.10;99.90;;;;;;5039284;28;20057;-76
2022/06/16 05:04:29;;;;;;;6.55;3.63;;;14.20;99.90;;;;;;5031354;28;20124;-76
2022/06/16 05:06:55;;;;;;;9.55;4.53;;;14.30;99.90;;;;;;5026550;28;20052;-76
2022/06/16 05:09:21;;;;;;;7.68;4.13;;;14.40;99.90;;;;;;5041304;28;20049;-76
2022/06/16 05:11:47;;;;;;;8.35;3.13;;;14.50;99.90;;;;;;5022036;28;20594;-76
2022/06/16 05:14:13;;;;;;;8.35;2.88;;;14.60;99.90;;;;;;5034173;28;20128;-76
2022/06/16 05:16:38;;;;;;;5.22;2.47;;;14.90;99.90;;;;;;5040396;28;20413;-76
2022/06/16 05:19:04;;;;;;;5.15;2.03;;;14.80;99.90;;;;;;5036048;28;20045;-79
2022/06/16 05:21:30;;;;;;;6.10;2.53;;;14.90;99.90;;;;;;5040964;28;20080;-76
2022/06/16 05:23:56;;;;;;;9.38;2.42;;;15.00;99.90;;;;;;5040828;28;20777;-76
2022/06/16 05:26:21;;;;;;;7.25;2.28;;;15.10;99.90;;;;;;5032283;28;20053;-76
2022/06/16 05:28:47;;;;;;;6.82;2.08;;;15.10;99.90;;;;;;5030894;28;20041;-77
2022/06/16 05:31:12;;;;;;;4.90;2.55;;;15.20;99.90;;;;;;5031572;28;20483;-76
2022/06/16 05:33:38;;;;;;;5.50;2.83;;;15.20;99.90;;;;;;5021217;28;20049;-77
2022/06/16 05:36:07;;;;;;;7.85;2.42;;;15.20;99.90;;;;;;5020581;28;20084;-77
2022/06/16 05:38:33;;;;;;;5.30;2.22;;;15.20;99.90;;;;;;5036674;28;20114;-77
2022/06/16 05:41:06;;;;;;;6.05;2.40;;;15.30;99.90;;;;;;5040900;28;20055;-76
2022/06/16 05:43:33;;;;;;;6.05;2.28;;;15.30;99.90;;;;;;5037528;28;20136;-77
2022/06/16 05:45:59;;;;;;;5.07;2.17;;;15.40;99.90;;;;;;5037264;28;20045;-77
2022/06/16 05:48:25;;;;;;;4.80;1.80;;;15.40;99.90;;;;;;5043511;28;20582;-76
2022/06/16 05:50:51;;;;;;;6.32;2.00;;;15.40;99.90;;;;;;5041217;28;20041;-78
2022/06/16 05:53:17;;;;;;;7.03;2.42;;;15.50;99.90;;;;;;5021500;28;20645;-76
2022/06/16 05:55:43;;;;;;;6.93;2.78;;;15.50;99.90;;;;;;5043120;28;20037;-76
2022/06/16 05:58:09;;;;;;;4.70;2.08;;;15.50;99.90;;;;;;5046626;28;20045;-78
2022/06/16 06:00:35;;;;;;;4.80;2.00;;;15.50;99.90;;;;;;5036558;28;20978;-79
2022/06/16 06:03:01;;;;;;;5.43;1.75;;;15.50;99.90;;;;;;5039841;28;20053;-81
2022/06/16 06:05:27;;;;;;;6.47;2.28;;;15.50;99.90;;;;;;5053555;28;20049;-80
2022/06/16 06:16:26;;;;;;;5.22;1.50;;;15.20;99.90;;;;;;5037460;28;20048;-82
2022/06/16 06:18:56;;;;;;;4.25;1.63;;;15.20;99.90;;;;;;5043805;28;20045;-82
2022/06/16 06:24:10;;;;;;;5.25;1.40;;;15.10;99.90;;;;;;5034510;28;20509;-82
2022/06/16 06:26:36;;;;;;;7.75;1.92;;;15.20;99.90;;;;;;5055034;28;20036;-82
2022/06/16 06:29:02;;;;;;;5.65;1.60;;;15.20;99.90;;;;;;5041809;28;20037;-82
2022/06/16 06:31:28;;;;;;;6.97;1.40;;;15.20;99.90;;;;;;5043582;28;20128;-81
2022/06/16 06:33:53;;;;;;;6.85;2.00;;;15.20;99.90;;;;;;5034328;28;20044;-81
2022/06/16 06:36:19;;;;;;;3.45;1.60;;;15.30;99.90;;;;;;5044070;28;20056;-80
2022/06/16 06:38:44;;;;;;;6.75;1.77;;;15.30;99.90;;;;;;5032225;28;20049;-81
2022/06/16 06:41:10;;;;;;;6.47;1.80;;;15.40;99.90;;;;;;5034709;28;20041;-81
2022/06/16 06:43:36;;;;;;;7.57;1.60;;;15.50;99.90;;;;;;5032280;28;20131;-81
2022/06/16 06:46:01;;;;;;;6.63;2.08;;;15.50;99.90;;;;;;5029007;28;20126;-81
2022/06/16 06:48:27;;;;;;;5.78;1.70;;;15.60;99.90;;;;;;5032992;28;20157;-81
2022/06/16 06:50:52;;;;;;;7.40;2.35;;;15.60;99.90;;;;;;5023711;28;20040;-81
2022/06/16 06:53:18;;;;;;;5.75;2.17;;;15.70;99.90;;;;;;5039267;28;20112;-80
2022/06/16 06:55:46;;;;;;;7.43;2.25;;;15.70;99.90;;;;;;5039042;28;20139;-80
2022/06/16 06:58:20;;;;;;;8.25;2.38;;;15.80;99.90;;;;;;5033892;28;20036;-80
2022/06/16 07:00:46;;;;;;;10.30;1.75;;;15.80;99.90;;;;;;5033258;28;20075;-81
2022/06/16 07:03:12;;;;;;;5.43;2.20;;;15.90;99.90;;;;;;5038595;28;20049;-80
2022/06/16 07:05:38;;;;;;;6.55;1.73;;;16.00;99.90;;;;;;5038799;28;20729;-80
2022/06/16 07:08:05;;;;;;;6.72;1.90;;;16.30;99.90;;;;;;5032365;28;20102;-80
2022/06/16 07:10:31;;;;;;;5.75;1.95;;;16.40;99.90;;;;;;5041574;28;20135;-79
2022/06/16 07:12:57;;;;;;;7.43;1.80;;;16.70;99.90;;;;;;5019246;28;20045;-80
2022/06/16 07:15:23;;;;;;;10.38;2.10;;;17.00;99.90;;;;;;5035647;28;20045;-81
2022/06/16 07:17:49;;;;;;;8.43;1.88;;;17.50;99.90;;;;;;5040243;28;20069;-79
2022/06/16 07:20:16;;;;;;;7.75;1.80;;;17.70;99.90;;;;;;5036607;28;20465;-80
2022/06/16 07:22:46;;;;;;;7.03;2.05;;;17.90;99.90;;;;;;5034208;28;20087;-80
2022/06/16 07:25:13;;;;;;;7.25;1.50;;;18.30;99.90;;;;;;5031924;28;20040;-80
2022/06/16 07:27:39;;;;;;;4.32;1.35;;;18.60;99.90;;;;;;5034892;28;20128;-81
2022/06/16 07:30:13;;;;;;;7.85;1.17;;;18.80;99.90;;;;;;5032130;28;20057;-80
2022/06/16 07:32:39;;;;;;;7.35;1.60;;;19.10;99.90;;;;;;5043137;28;20060;-83
2022/06/16 07:35:05;;;;;;;5.95;1.23;;;19.20;99.90;;;;;;5023418;28;20059;-78
2022/06/16 07:37:30;;;;;;;3.70;0.90;;;19.40;99.90;;;;;;5032227;28;20492;-78
2022/06/16 07:39:56;;;;;;;5.28;1.13;;;19.60;99.90;;;;;;5040340;28;20152;-78
2022/06/16 07:42:22;;;;;;;3.78;1.25;;;19.60;99.90;;;;;;5026270;28;20059;-78
2022/06/16 07:44:47;;;;;;;3.33;1.30;;;19.80;99.90;;;;;;5025240;28;20073;-78
2022/06/16 07:47:13;;;;;;;5.13;1.10;;;19.80;99.90;;;;;;5038335;28;20048;-76
2022/06/16 07:49:39;;;;;;;4.07;1.30;;;20.00;99.90;;;;;;5027957;28;20049;-76
2022/06/16 07:52:05;;;;;;;5.75;1.10;;;20.00;99.90;;;;;;5039248;28;20062;-77
2022/06/16 07:54:31;;;;;;;3.50;1.00;;;20.10;99.90;;;;;;5028784;28;20602;-76
2022/06/16 07:56:56;;;;;;;2.38;0.85;;;20.20;99.90;;;;;;5034161;28;20053;-76
2022/06/16 07:59:22;;;;;;;4.43;1.10;;;20.20;99.90;;;;;;5026699;28;20152;-77
2022/06/16 08:01:47;;;;;;;4.55;1.23;;;20.20;99.90;;;;;;5037903;28;20188;-77
2022/06/16 08:04:13;;;;;;;8.07;1.20;;;20.20;99.90;;;;;;5042421;28;20041;-77
2022/06/16 08:06:39;;;;;;;3.60;1.23;;;20.30;99.90;;;;;;5026347;28;20030;-78
2022/06/16 08:09:06;;;;;;;4.80;1.20;;;20.20;99.90;;;;;;5030535;28;20626;-77
2022/06/16 08:14:17;;;;;;;;;;;20.20;99.90;;;;;;5033537;28;20215;-79
2022/06/16 08:16:43;;;;;;;3.67;1.10;;;20.20;99.90;;;;;;5032359;28;19932;-78
2022/06/16 08:19:12;;;;;;;4.43;1.23;;;20.30;99.90;;;;;;5031756;28;20045;-78
2022/06/16 08:21:38;;;;;;;8.45;1.58;;;20.30;99.90;;;;;;5031995;28;20068;-83
2022/06/16 08:24:06;;;;;;;5.50;1.20;;;20.30;99.90;;;;;;5034504;28;20152;-80
2022/06/16 08:26:32;;;;;;;6.85;1.25;;;20.30;99.90;;;;;;5043104;28;20043;-82
2022/06/16 08:28:59;;;;;;;3.92;1.20;;;20.30;99.90;;;;;;5031424;28;20054;-83
2022/06/16 08:31:25;;;;;;;4.78;1.27;;;20.30;99.90;;;;;;5037301;28;20483;-79
2022/06/16 08:33:52;;;;;;;5.15;1.20;;;20.30;99.90;;;;;;5034680;28;20408;-82
2022/06/16 08:36:22;;;;;;;3.80;1.13;;;20.40;99.50;;;;;;5039333;28;20064;-82
2022/06/16 08:38:48;;;;;;;8.18;1.52;;;20.40;99.90;;;;;;5034767;28;20099;-81
2022/06/16 08:41:22;;;;;;;3.55;1.52;;;20.40;99.90;;;;;;5038361;28;20515;-81
2022/06/16 08:43:53;;;;;;;;;;;20.30;99.50;;;;;;5045346;28;20118;-83
2022/06/16 08:46:19;;;;;;;5.07;1.60;;;20.40;99.60;;;;;;5042177;28;19925;-83
2022/06/16 08:48:51;;;;;;;5.78;1.45;;;20.40;99.90;;;;;;5032123;28;20772;-81
2022/06/16 08:51:39;;;;;;;4.70;1.23;;;20.50;99.90;;;;;;5049246;28;20137;-84
2022/06/16 08:54:39;;;;;;;4.35;1.50;;;20.50;99.90;;;;;;5028450;28;20087;-84
2022/06/16 08:57:30;;;;;;;3.38;1.40;;;20.70;99.40;;;;;;5031363;28;20099;-80
2022/06/16 09:00:18;;;;;;;5.50;1.60;;;20.70;98.90;;;;;;5036881;28;20148;-79
2022/06/16 09:03:07;;;;;;;5.47;1.75;;;20.80;99.30;;;;;;5034093;28;20059;-79
2022/06/16 09:05:53;;;;;;;3.85;1.67;;;20.80;98.70;;;;;;5053410;28;20135;-80
2022/06/16 09:08:44;;;;;;;5.30;1.67;;;20.80;98.30;;;;;;5034479;28;20511;-79
2022/06/16 09:11:37;;;;;;;6.80;1.50;;;20.90;99.50;;;;;;5033919;28;20406;-80
2022/06/16 09:14:11;;;;;;;8.48;1.98;;;21.00;99.50;;;;;;5038154;28;20052;-83
2022/06/16 09:16:55;;;;;;;5.88;1.77;;;21.20;99.00;;;;;;5039255;28;20120;-87
2022/06/16 09:19:27;;;;;;;6.95;2.28;;;21.40;98.80;;;;;;5043262;28;20766;-88
2022/06/16 09:22:22;;;;;;;5.55;2.35;;;21.40;98.60;;;;;;5039195;28;20096;-87
2022/06/16 09:25:06;;;;;;;3.78;1.80;;;21.40;97.40;;;;;;5054312;28;20052;-87
2022/06/16 09:27:54;;;;;;;5.60;2.33;;;21.50;98.10;;;;;;5040401;28;20087;-90
2022/06/16 09:30:26;;;;;;;5.70;2.45;;;21.60;97.50;;;;;;5042037;28;20125;-90
2022/06/16 09:32:53;;;;;;;7.18;2.00;;;21.80;97.60;;;;;;5039043;28;20053;-88
2022/06/16 09:35:23;;;;;;;3.30;1.83;;;21.90;97.50;;;;;;5026176;28;20048;-87
2022/06/16 09:38:02;;;;;;;6.95;2.10;;;22.10;97.30;;;;;;5038863;28;20792;-86
2022/06/16 09:40:37;;;;;;;7.57;1.90;;;22.40;97.60;;;;;;5040615;28;20048;-84
2022/06/16 09:43:21;;;;;;;6.28;2.20;;;22.60;97.50;;;;;;5033122;28;20053;-83
2022/06/16 09:45:54;;;;;;;6.47;2.30;;;22.70;95.90;;;;;;5051267;28;20048;-87
2022/06/16 09:48:37;;;;;;;5.07;2.03;;;22.60;95.70;;;;;;5034148;28;20056;-87
2022/06/16 09:51:16;;;;;;;4.38;2.47;;;22.50;95.90;;;;;;5043982;28;20732;-90
2022/06/16 09:53:48;;;;;;;5.70;2.30;;;22.50;96.60;;;;;;5047630;28;20045;-87
2022/06/16 09:56:21;;;;;;;7.50;2.80;;;22.50;96.80;;;;;;5036081;28;20152;-86
2022/06/16 09:58:52;;;;;;;4.82;2.40;;;22.50;96.80;;;;;;5041792;28;20124;-88
2022/06/16 10:01:20;;;;;;;6.00;2.28;;;22.50;96.50;;;;;;5042739;28;20050;-86
2022/06/16 10:03:49;;;;;;;6.97;2.40;;;22.50;96.50;;;;;;5036539;28;20048;-87
2022/06/16 10:06:53;;;;;;;8.25;2.70;;;22.50;96.60;;;;;;5035415;28;20057;-88
2022/06/16 10:09:37;;;;;;;7.13;3.37;;;22.60;96.00;;;;;;5022661;28;20053;-89
2022/06/16 10:12:38;;;;;;;9.43;2.90;;;22.70;96.00;;;;;;5037243;28;20041;-90
2022/06/16 10:15:25;;;;;;;8.80;2.50;;;22.70;95.50;;;;;;5036855;28;20053;-87
2022/06/16 10:17:53;;;;;;;6.85;2.83;;;22.80;95.70;;;;;;5051864;28;20057;-90
2022/06/16 10:20:21;;;;;;;5.00;2.83;;;22.80;95.20;;;;;;5033768;28;20044;-89
2022/06/16 10:22:51;;;;;;;6.75;2.40;;;22.90;95.50;;;;;;5034381;28;20196;-80
2022/06/16 10:25:27;;;;;;;8.30;2.65;;;22.90;94.30;;;;;;5037748;28;20154;-85
2022/06/16 10:27:59;;;;;;;6.43;3.00;;;22.90;95.10;;;;;;5041702;28;20494;-86
2022/06/16 10:30:39;;;;;;;4.13;1.80;;;23.00;95.20;;;;;;5037661;28;20051;-88
2022/06/16 10:33:19;;;;;;;4.70;2.53;;;23.00;94.80;;;;;;5036956;28;20057;-86
2022/06/16 10:35:51;;;;;;;5.18;2.30;;;23.10;94.60;;;;;;5037154;28;20845;-86
2022/06/16 10:38:29;;;;;;;3.95;2.13;;;23.20;95.10;;;;;;5034833;28;20037;-85
2022/06/16 10:40:56;;;;;;;6.97;2.38;;;23.20;94.60;;;;;;5033118;28;20605;-86
2022/06/16 10:43:22;;;;;;;9.38;2.88;;;23.30;94.50;;;;;;5033118;28;20081;-86
2022/06/16 10:46:10;;;;;;;12.48;3.47;;;23.30;94.00;;;;;;5032903;28;20689;-86
2022/06/16 10:48:37;;;;;;;8.98;2.90;;;23.40;94.20;;;;;;5040262;28;20079;-86
2022/06/16 10:51:06;;;;;;;5.00;3.13;;;23.40;94.80;;;;;;5042264;28;20136;-86
2022/06/16 10:53:36;;;;;;;9.38;2.80;;;23.40;93.00;;;;;;5037824;28;20051;-86
2022/06/16 10:56:18;;;;;;;6.65;2.10;;;23.40;93.10;;;;;;5040186;28;20062;-84
2022/06/16 10:58:49;;;;;;;5.55;2.15;;;23.40;92.90;;;;;;5028911;28;20485;-86
2022/06/16 11:01:33;;;;;;;6.82;2.50;;;23.40;93.00;;;;;;5039909;28;20056;-87
2022/06/16 11:04:10;;;;;;;6.35;2.47;;;23.50;93.40;;;;;;5043188;28;20628;-86
2022/06/16 11:06:47;;;;;;;7.28;2.35;;;23.60;93.20;;;;;;5024579;28;20037;-88
2022/06/16 11:09:18;;;;;;;5.65;2.50;;;23.60;93.10;;;;;;5036038;28;20057;-88
2022/06/16 11:11:52;;;;;;;4.85;2.28;;;23.60;92.40;;;;;;5034668;28;20049;-87
2022/06/16 11:14:38;;;;;;;5.05;2.05;;;23.50;92.40;;;;;;5032734;28;20048;-88
2022/06/16 11:17:17;;;;;;;8.23;2.55;;;23.70;92.50;;;;;;5030921;28;20544;-86
2022/06/16 11:20:10;;;;;;;6.78;2.38;;;23.70;92.10;;;;;;5030073;28;20040;-86
2022/06/16 11:22:41;;;;;;;6.28;2.50;;;23.90;91.30;;;;;;5028082;28;20128;-86
2022/06/16 11:25:33;;;;;;;8.18;2.70;;;24.00;92.70;;;;;;5022296;28;20041;-85
2022/06/16 11:28:10;;;;;;;4.72;2.30;;;24.00;92.20;;;;;;5030001;28;20153;-86
2022/06/16 11:30:52;;;;;;;9.93;2.50;;;24.10;92.10;;;;;;5035919;28;20045;-87
2022/06/16 11:36:43;;;;;;;6.10;2.10;;;24.10;91.40;;;;;;5033941;28;20111;-84
2022/06/16 11:39:22;;;;;;;5.18;2.28;;;24.00;90.60;;;;;;5026819;28;20941;-84
2022/06/16 11:41:51;;;;;;;5.30;1.80;;;23.90;91.30;;;;;;5027113;28;20151;-84
2022/06/16 11:44:19;;;;;;;5.40;1.90;;;23.70;91.80;;;;;;5035972;28;20044;-84
2022/06/16 11:47:22;;;;;;;8.80;2.38;;;23.60;92.00;;;;;;5031090;28;20068;-84
2022/06/16 11:50:17;;;;;;;6.45;2.40;;;23.50;91.20;;;;;;5030432;28;20139;-78
2022/06/16 11:52:58;;;;;;;;;;;23.50;91.20;;;;;;5021577;28;20044;-85
2022/06/16 11:55:40;;;;;;;5.50;2.30;;;23.50;90.00;;;;;;5021108;28;19921;-85
2022/06/16 11:58:27;;;;;;;6.80;2.75;;;23.70;91.40;;;;;;5027429;28;20057;-85
2022/06/16 12:01:12;;;;;;;6.85;2.22;;;23.90;92.50;;;;;;5022539;28;20044;-85
2022/06/16 12:03:56;;;;;;;;;;;24.10;92.00;;;;;;5036188;28;20156;-84
2022/06/16 12:06:50;;;;;;;5.37;2.10;;;24.10;89.80;;;;;;5032621;28;19933;-85
2022/06/16 12:09:55;;;;;;;4.75;2.20;;;24.10;90.30;;;;;;5025298;28;20148;-85
2022/06/16 12:12:54;;;;;;;7.03;2.78;;;24.30;90.30;;;;;;5006432;28;20064;-85
2022/06/16 12:15:44;;;;;;;5.10;2.40;;;24.50;90.30;;;;;;5025876;28;20049;-86
2022/06/16 12:18:13;;;;;;;6.88;2.63;;;24.80;89.20;;;;;;5032963;28;20594;-85
2022/06/16 12:21:01;;;;;;;6.80;2.33;;;24.90;89.20;;;;;;5035248;28;20048;-86
2022/06/16 12:23:47;;;;;;;4.95;2.13;;;25.00;89.60;;;;;;5029974;28;20045;-85
2022/06/16 12:26:27;;;;;;;5.30;2.47;;;25.30;90.80;;;;;;5030333;28;20092;-87
2022/06/16 12:29:13;;;;;;;6.75;2.60;;;25.50;88.20;;;;;;5030757;28;20103;-87
2022/06/16 12:31:44;;;;;;;5.80;2.70;;;25.60;86.70;;;;;;5031413;28;20439;-87
2022/06/16 12:34:28;;;;;;;5.50;2.67;;;25.60;86.20;;;;;;5043612;28;20040;-89
2022/06/16 12:36:56;;;;;;;4.88;2.35;;;25.50;84.20;;;;;;5035988;28;20045;-90
2022/06/16 12:39:28;;;;;;;5.00;2.30;;;25.60;87.30;;;;;;5031619;28;20045;-90
2022/06/16 12:41:59;;;;;;;5.15;1.90;;;25.60;85.60;;;;;;5040305;28;20053;-86
2022/06/16 12:44:49;;;;;;;6.32;2.60;;;25.70;87.10;;;;;;5035012;28;20148;-88
2022/06/16 12:47:21;;;;;;;10.20;2.30;;;25.70;83.50;;;;;;5021079;28;20065;-87
2022/06/16 12:49:53;;;;;;;3.95;2.00;;;25.70;87.30;;;;;;5027195;28;20111;-90
2022/06/16 12:52:44;;;;;;;6.88;2.40;;;25.80;86.20;;;;;;5033138;28;20068;-87
2022/06/16 12:55:19;;;;;;;6.20;2.45;;;25.90;85.00;;;;;;5032543;28;20045;-87
2022/06/16 12:57:57;;;;;;;5.18;2.22;;;25.90;84.70;;;;;;5024302;28;20536;-89
2022/06/16 13:00:28;;;;;;;5.47;1.80;;;26.00;85.20;;;;;;5031782;28;20178;-89
2022/06/16 13:03:09;;;;;;;5.45;2.40;;;26.00;85.40;;;;;;5023343;28;20050;-86
2022/06/16 13:05:36;;;;;;;6.57;2.22;;;25.80;82.70;;;;;;5029159;28;20159;-85
2022/06/16 13:08:03;;;;;;;6.00;2.47;;;25.70;84.90;;;;;;5022296;28;20052;-85
2022/06/16 13:10:37;;;;;;;6.47;2.10;;;25.60;84.90;;;;;;5030286;28;20055;-84
2022/06/16 13:13:04;;;;;;;5.70;2.30;;;25.60;83.60;;;;;;5038886;28;20408;-84
2022/06/16 13:15:40;;;;;;;4.70;2.10;;;25.60;84.40;;;;;;5034114;28;20138;-86
2022/06/16 13:18:17;;;;;;;5.25;2.25;;;25.60;84.00;;;;;;5034260;28;20044;-84
2022/06/16 13:20:53;;;;;;;4.63;2.03;;;25.70;84.00;;;;;;5029685;28;20092;-83
2022/06/16 13:23:27;;;;;;;4.82;2.40;;;25.70;83.10;;;;;;5023982;28;20041;-84
2022/06/16 13:26:15;;;;;;;5.28;2.15;;;25.70;82.40;;;;;;5035725;28;20178;-85
2022/06/16 13:28:49;;;;;;;4.63;2.10;;;25.70;83.10;;;;;;5039738;28;20051;-83
2022/06/16 13:31:46;;;;;;;4.40;2.30;;;25.60;83.50;;;;;;5034939;28;20855;-85
2022/06/16 13:34:21;;;;;;;5.97;2.15;;;25.50;82.10;;;;;;5041612;28;20071;-84
2022/06/16 13:36:54;;;;;;;5.53;2.40;;;25.50;82.70;;;;;;5041797;28;20124;-86
2022/06/16 13:39:48;;;;;;;7.35;2.00;;;25.60;82.10;;;;;;5039885;28;20889;-85
2022/06/16 13:42:19;;;;;;;4.60;2.43;;;25.70;82.10;;;;;;5037408;28;20506;-85
2022/06/16 13:45:10;;;;;;;5.35;2.00;;;25.70;81.80;;;;;;5036528;28;20056;-85
2022/06/16 13:47:36;;;;;;;5.88;2.10;;;25.60;80.70;;;;;;5037111;28;20471;-86